Portada
METAR-TAF:

METAR-TAF

Aeropuertos :

Béziers, Francia

latitud: 43-19N, longitud: 003-21E, altitud: 17 m

Observación

El informe se hizo hace 23 minutos, a las 03:00 UTC
Viento 19 kt del oeste-noroeste
Temperatura 12°C
Humedad 54%
Presión 1028 hPa
Visibilidad 10 km o más
sin nubes por debajo de 1500 m y sin presencia de cumulonimbus.

METAR: LFMU 100300Z AUTO 29019KT CAVOK 12/03 Q1028 NOSIG

Hora: 04:23 (03:23 UTC)

Pronóstico

El informe se hizo hace 1 hora y 23 minutos, a las 02:00 UTC
Pronóstico válido del 10 a las 03 UTC al 11 a las 03 UTC
Viento 12 kt del oeste-noroeste
Visibilidad 10 km o más
sin nubes por debajo de 1500 m y sin presencia de cumulonimbus.
Temporalmente
del 10 a las 12 UTC al 10 a las 17 UTC
Viento 15 kt del noroeste con ráfagas de 25 kt
Evolucionando progresivamente
del 10 a las 20 UTC al 10 a las 22 UTC
Viento 5 kt del oeste-noroeste

TAF: LFMU 100200Z 1003/1103 30012KT CAVOK TEMPO 1012/1017 32015G25KT BECMG 1020/1022 29005KT

Observaciones y pronósticos meteorológicos de más de 4000 aeropuertos (mensajes METAR y TAF).

Los puntos amarillos y rojos representan las estaciones disponibles.

Ponga el ratón en el punto deseado para ver el nombre de la estación.

Haga clic para ver las observaciones y los pronósticos meteorológicos.

Para cambiar el mapa : haga clic en los botones verdes con una cruz de color negro para hacer un zoom, en el botón verde con un guión para alejar o en las flechas verdes para mapas adyacentes.


METAR-TAF: